Wetterdaten: Woche 14.10.13 - 20.10.13 (KW42)
Datum Zeit Temp. A. Feuchte A. Luftdruck Regen Wind Richtung Taupunkt Windchill Windben
14.10.2013 00:00 1,1 C 96 % 1020,2 hPa 0,0 l/m 0,0 km/h (0 Bft) N 0,4 C 1,1 C 0,0 km/h (0 Bft)
14.10.2013 01:00 1,5 C 96 % 1020,0 hPa 0,0 l/m 0,0 km/h (0 Bft) N 1,0 C 1,5 C 0,0 km/h (0 Bft)
14.10.2013 02:00 1,1 C 96 % 1019,9 hPa 0,0 l/m 0,0 km/h (0 Bft) N 0,5 C 1,1 C 0,0 km/h (0 Bft)
14.10.2013 03:00 0,4 C 96 % 1019,4 hPa 0,2 l/m 0,0 km/h (0 Bft) N -0,1 C 0,4 C 0,0 km/h (0 Bft)
14.10.2013 04:00 2,2 C 97 % 1018,9 hPa 0,0 l/m 0,3 km/h (0 Bft) SO 1,8 C 2,2 C 1,3 km/h (1 Bft)
14.10.2013 05:00 2,8 C 97 % 1018,5 hPa 0,0 l/m 0,6 km/h (0 Bft) S-SO 2,3 C 2,8 C 3,1 km/h (1 Bft)
14.10.2013 06:00 2,6 C 97 % 1018,3 hPa 0,0 l/m 0,0 km/h (0 Bft) N 2,2 C 2,6 C 0,0 km/h (0 Bft)
14.10.2013 07:00 2,6 C 97 % 1018,4 hPa 0,0 l/m 0,0 km/h (0 Bft) N 2,2 C 2,6 C 0,0 km/h (0 Bft)
14.10.2013 08:00 3,3 C 97 % 1018,5 hPa 0,0 l/m 0,3 km/h (0 Bft) N 2,9 C 3,3 C 1,9 km/h (1 Bft)
14.10.2013 09:00 4,3 C 97 % 1018,5 hPa 0,0 l/m 1,6 km/h (1 Bft) SO 3,9 C 4,3 C 4,9 km/h (1 Bft)
14.10.2013 10:00 6,3 C 96 % 1018,4 hPa 0,0 l/m 0,6 km/h (0 Bft) O-NO 5,7 C 6,3 C 2,1 km/h (1 Bft)
14.10.2013 11:00 8,1 C 92 % 1018,3 hPa 0,0 l/m 2,1 km/h (1 Bft) O 6,9 C 8,1 C 4,8 km/h (1 Bft)
14.10.2013 12:00 10,0 C 88 % 1018,2 hPa 0,0 l/m 2,7 km/h (1 Bft) O-SO 8,2 C 10,0 C 5,9 km/h (2 Bft)
14.10.2013 13:00 11,2 C 86 % 1017,8 hPa 0,2 l/m 2,3 km/h (1 Bft) O-SO 8,9 C 11,2 C 6,0 km/h (2 Bft)
14.10.2013 14:00 11,1 C 89 % 1017,5 hPa 0,4 l/m 1,7 km/h (1 Bft) SO 9,4 C 11,1 C 5,6 km/h (2 Bft)
14.10.2013 15:00 11,8 C 89 % 1017,2 hPa 0,0 l/m 3,4 km/h (1 Bft) SO 10,0 C 11,8 C 7,8 km/h (2 Bft)
14.10.2013 16:00 11,7 C 89 % 1016,9 hPa 0,0 l/m 2,2 km/h (1 Bft) O-SO 10,0 C 11,7 C 6,1 km/h (2 Bft)
14.10.2013 17:00 11,7 C 90 % 1016,8 hPa 0,0 l/m 0,3 km/h (0 Bft) N 10,1 C 11,7 C 0,9 km/h (0 Bft)
14.10.2013 18:00 10,5 C 91 % 1016,5 hPa 0,0 l/m 0,0 km/h (0 Bft) N 9,1 C 10,5 C 0,0 km/h (0 Bft)
14.10.2013 19:00 9,0 C 93 % 1016,4 hPa 0,0 l/m 0,0 km/h (0 Bft) N 7,9 C 9,0 C 0,0 km/h (0 Bft)
14.10.2013 20:00 7,4 C 95 % 1016,1 hPa 0,0 l/m 0,0 km/h (0 Bft) N 6,6 C 7,4 C 0,0 km/h (0 Bft)
14.10.2013 21:00 6,8 C 95 % 1015,8 hPa 0,0 l/m 0,0 km/h (0 Bft) N 6,1 C 6,8 C 0,0 km/h (0 Bft)
14.10.2013 22:00 6,5 C 96 % 1015,5 hPa 0,0 l/m 0,0 km/h (0 Bft) N 5,9 C 6,5 C 0,0 km/h (0 Bft)
14.10.2013 23:00 6,0 C 96 % 1015,0 hPa 0,0 l/m 0,0 km/h (0 Bft) N 5,5 C 6,0 C 0,0 km/h (0 Bft)
15.10.2013 00:00 6,4 C 96 % 1014,2 hPa 0,0 l/m 0,0 km/h (0 Bft) N 5,8 C 6,4 C 0,0 km/h (0 Bft)
15.10.2013 01:00 7,2 C 96 % 1013,4 hPa 0,0 l/m 0,3 km/h (0 Bft) O-SO 6,6 C 7,2 C 1,9 km/h (1 Bft)
15.10.2013 02:00 8,2 C 96 % 1012,7 hPa 0,2 l/m 0,6 km/h (0 Bft) O 7,5 C 8,2 C 3,3 km/h (1 Bft)
15.10.2013 03:00 8,9 C 95 % 1011,5 hPa 0,4 l/m 2,0 km/h (1 Bft) O-SO 8,1 C 8,9 C 4,7 km/h (1 Bft)
15.10.2013 04:00 9,4 C 93 % 1010,4 hPa 0,2 l/m 3,5 km/h (1 Bft) SO 8,4 C 9,4 C 9,1 km/h (2 Bft)
15.10.2013 05:00 9,6 C 93 % 1009,5 hPa 0,0 l/m 2,5 km/h (1 Bft) SO 8,5 C 9,6 C 6,9 km/h (2 Bft)
15.10.2013 06:00 9,6 C 94 % 1009,0 hPa 1,4 l/m 2,0 km/h (1 Bft) S-SW 8,6 C 9,6 C 4,3 km/h (1 Bft)
15.10.2013 07:00 9,7 C 94 % 1008,4 hPa 0,0 l/m 1,4 km/h (1 Bft) S-SO 8,7 C 9,7 C 4,0 km/h (1 Bft)
15.10.2013 08:00 9,6 C 94 % 1008,4 hPa 0,0 l/m 0,6 km/h (0 Bft) SO 8,8 C 9,6 C 2,5 km/h (1 Bft)
15.10.2013 09:00 10,0 C 95 % 1008,2 hPa 0,0 l/m 0,3 km/h (0 Bft) SO 9,3 C 10,0 C 1,5 km/h (1 Bft)
15.10.2013 10:00 10,6 C 94 % 1008,1 hPa 0,0 l/m 0,2 km/h (0 Bft) N 9,7 C 10,6 C 0,9 km/h (0 Bft)
15.10.2013 11:00 10,5 C 93 % 1008,2 hPa 2,2 l/m 1,6 km/h (1 Bft) S-SW 9,4 C 10,5 C 4,9 km/h (1 Bft)
15.10.2013 12:00 9,9 C 93 % 1008,1 hPa 1,6 l/m 1,2 km/h (1 Bft) S-SW 8,9 C 9,9 C 4,5 km/h (1 Bft)
15.10.2013 13:00 10,2 C 94 % 1007,7 hPa 0,0 l/m 1,2 km/h (1 Bft) SW 9,2 C 10,2 C 4,4 km/h (1 Bft)
15.10.2013 14:00 11,0 C 92 % 1007,2 hPa 0,0 l/m 2,0 km/h (1 Bft) SW 9,7 C 11,0 C 6,7 km/h (2 Bft)
15.10.2013 15:00 11,9 C 87 % 1006,8 hPa 0,0 l/m 2,1 km/h (1 Bft) W 9,7 C 11,9 C 6,3 km/h (2 Bft)
15.10.2013 16:00 12,2 C 85 % 1006,4 hPa 0,0 l/m 1,3 km/h (1 Bft) SW 9,7 C 12,2 C 3,9 km/h (1 Bft)
15.10.2013 17:00 10,8 C 89 % 1006,1 hPa 1,0 l/m 1,3 km/h (1 Bft) SW 9,1 C 10,8 C 3,5 km/h (1 Bft)
15.10.2013 18:00 9,6 C 92 % 1006,1 hPa 0,2 l/m 0,0 km/h (0 Bft) N 8,3 C 9,6 C 0,3 km/h (0 Bft)
15.10.2013 19:00 8,5 C 94 % 1006,2 hPa 0,0 l/m 0,0 km/h (0 Bft) N 7,5 C 8,5 C 0,0 km/h (0 Bft)
15.10.2013 20:00 6,8 C 94 % 1006,6 hPa 0,0 l/m 0,0 km/h (0 Bft) N 6,0 C 6,8 C 0,0 km/h (0 Bft)
15.10.2013 21:00 5,9 C 95 % 1006,9 hPa 0,0 l/m 0,0 km/h (0 Bft) N 5,2 C 5,9 C 0,0 km/h (0 Bft)
15.10.2013 22:00 6,4 C 96 % 1007,1 hPa 0,0 l/m 0,0 km/h (0 Bft) N 5,8 C 6,4 C 0,0 km/h (0 Bft)
15.10.2013 23:00 7,2 C 96 % 1007,2 hPa 0,2 l/m 0,0 km/h (0 Bft) N 6,6 C 7,2 C 0,0 km/h (0 Bft)
16.10.2013 00:00 7,6 C 96 % 1007,3 hPa 0,0 l/m 0,8 km/h (0 Bft) W 7,0 C 7,6 C 2,7 km/h (1 Bft)
16.10.2013 01:00 7,6 C 96 % 1007,4 hPa 0,0 l/m 1,3 km/h (1 Bft) W 7,0 C 7,6 C 4,7 km/h (1 Bft)
16.10.2013 02:00 7,6 C 96 % 1007,8 hPa 0,0 l/m 2,7 km/h (1 Bft) W-SW 7,0 C 7,6 C 7,6 km/h (2 Bft)
16.10.2013 03:00 7,6 C 96 % 1008,2 hPa 0,0 l/m 1,2 km/h (1 Bft) SW 7,0 C 7,6 C 4,9 km/h (1 Bft)
16.10.2013 04:00 7,7 C 96 % 1008,7 hPa 0,0 l/m 1,0 km/h (0 Bft) S-SW 7,1 C 7,7 C 3,5 km/h (1 Bft)
16.10.2013 05:00 7,7 C 96 % 1009,3 hPa 0,0 l/m 0,6 km/h (0 Bft) S 7,1 C 7,7 C 3,2 km/h (1 Bft)
16.10.2013 06:00 7,8 C 96 % 1009,7 hPa 0,0 l/m 1,1 km/h (0 Bft) W-SW 7,2 C 7,8 C 3,7 km/h (1 Bft)
16.10.2013 07:00 7,9 C 96 % 1010,1 hPa 0,0 l/m 0,9 km/h (0 Bft) SW 7,3 C 7,9 C 3,2 km/h (1 Bft)
16.10.2013 08:00 8,2 C 96 % 1011,0 hPa 0,0 l/m 0,6 km/h (0 Bft) S-SW 7,6 C 8,2 C 2,9 km/h (1 Bft)
16.10.2013 09:00 8,4 C 96 % 1011,8 hPa 0,0 l/m 1,4 km/h (1 Bft) S-SW 7,8 C 8,4 C 4,1 km/h (1 Bft)
16.10.2013 10:00 9,2 C 95 % 1012,4 hPa 0,0 l/m 2,2 km/h (1 Bft) S 8,5 C 9,2 C 4,8 km/h (1 Bft)
16.10.2013 11:00 10,7 C 89 % 1012,7 hPa 0,0 l/m 3,1 km/h (1 Bft) S-SW 9,0 C 10,7 C 7,1 km/h (2 Bft)
16.10.2013 12:00 10,4 C 88 % 1013,4 hPa 0,0 l/m 2,0 km/h (1 Bft) SW 8,4 C 10,4 C 5,3 km/h (1 Bft)
16.10.2013 13:00 10,3 C 89 % 1013,5 hPa 0,0 l/m 1,7 km/h (1 Bft) SW 8,6 C 10,3 C 4,1 km/h (1 Bft)
16.10.2013 14:00 10,4 C 89 % 1013,5 hPa 0,0 l/m 3,1 km/h (1 Bft) S-SW 8,6 C 10,4 C 6,4 km/h (2 Bft)
16.10.2013 15:00 10,2 C 89 % 1013,6 hPa 0,0 l/m 1,3 km/h (1 Bft) SW 8,5 C 10,2 C 4,3 km/h (1 Bft)
16.10.2013 16:00 10,3 C 90 % 1013,7 hPa 0,0 l/m 0,4 km/h (0 Bft) S-SW 8,6 C 10,3 C 1,5 km/h (1 Bft)
16.10.2013 17:00 10,3 C 90 % 1013,6 hPa 0,0 l/m 0,0 km/h (0 Bft) N 8,8 C 10,3 C 0,0 km/h (0 Bft)
16.10.2013 18:00 10,1 C 91 % 1013,6 hPa 0,0 l/m 0,1 km/h (0 Bft) O-SO 8,8 C 10,1 C 0,5 km/h (0 Bft)
16.10.2013 19:00 10,0 C 93 % 1013,4 hPa 0,0 l/m 0,4 km/h (0 Bft) SO 8,8 C 10,0 C 1,6 km/h (1 Bft)
16.10.2013 20:00 9,8 C 94 % 1013,2 hPa 0,0 l/m 1,0 km/h (0 Bft) S-SO 8,8 C 9,8 C 2,9 km/h (1 Bft)
16.10.2013 21:00 9,6 C 94 % 1013,0 hPa 0,0 l/m 2,0 km/h (1 Bft) S-SO 8,7 C 9,6 C 5,5 km/h (2 Bft)
16.10.2013 22:00 9,4 C 94 % 1012,7 hPa 0,0 l/m 0,7 km/h (0 Bft) SO 8,5 C 9,4 C 2,9 km/h (1 Bft)
16.10.2013 23:00 9,2 C 94 % 1012,3 hPa 0,0 l/m 0,6 km/h (0 Bft) O-SO 8,3 C 9,2 C 2,3 km/h (1 Bft)
17.10.2013 00:00 9,2 C 94 % 1011,8 hPa 0,0 l/m 0,0 km/h (0 Bft) N 8,2 C 9,2 C 0,0 km/h (0 Bft)
17.10.2013 01:00 9,0 C 93 % 1010,8 hPa 0,0 l/m 0,7 km/h (0 Bft) O-SO 7,9 C 9,0 C 2,9 km/h (1 Bft)
17.10.2013 02:00 8,8 C 93 % 1010,1 hPa 0,0 l/m 0,8 km/h (0 Bft) S-SW 7,7 C 8,8 C 2,5 km/h (1 Bft)
17.10.2013 03:00 8,8 C 93 % 1009,4 hPa 0,0 l/m 2,7 km/h (1 Bft) S-SW 7,7 C 8,8 C 6,7 km/h (2 Bft)
17.10.2013 04:00 8,9 C 94 % 1009,1 hPa 0,8 l/m 4,5 km/h (1 Bft) SW 8,0 C 8,9 C 9,7 km/h (2 Bft)
17.10.2013 05:00 9,2 C 95 % 1008,6 hPa 0,0 l/m 5,5 km/h (2 Bft) SW 8,5 C 9,1 C 12,9 km/h (3 Bft)
17.10.2013 06:00 9,6 C 95 % 1008,2 hPa 0,2 l/m 4,8 km/h (1 Bft) S-SW 8,8 C 9,6 C 10,8 km/h (2 Bft)
17.10.2013 07:00 10,0 C 95 % 1008,3 hPa 0,0 l/m 4,4 km/h (1 Bft) SW 9,2 C 10,0 C 10,6 km/h (2 Bft)
17.10.2013 08:00 10,2 C 94 % 1008,6 hPa 0,0 l/m 3,5 km/h (1 Bft) SW 9,3 C 10,2 C 8,7 km/h (2 Bft)
17.10.2013 09:00 10,8 C 94 % 1008,6 hPa 0,0 l/m 4,7 km/h (1 Bft) SW 9,8 C 10,8 C 10,5 km/h (2 Bft)
17.10.2013 10:00 12,7 C 90 % 1008,1 hPa 0,0 l/m 7,9 km/h (2 Bft) SW 11,0 C 11,8 C 19,0 km/h (3 Bft)
17.10.2013 11:00 13,8 C 86 % 1007,8 hPa 0,0 l/m 8,9 km/h (2 Bft) SW 11,5 C 12,4 C 21,3 km/h (4 Bft)
17.10.2013 12:00 14,2 C 82 % 1007,2 hPa 0,0 l/m 10,7 km/h (2 Bft) S-SW 11,3 C 12,0 C 23,1 km/h (4 Bft)
17.10.2013 13:00 14,8 C 79 % 1006,4 hPa 0,0 l/m 10,0 km/h (2 Bft) SW 11,1 C 12,9 C 23,3 km/h (4 Bft)
17.10.2013 14:00 15,8 C 70 % 1005,5 hPa 0,0 l/m 12,3 km/h (2 Bft) S-SW 10,4 C 13,1 C 29,2 km/h (5 Bft)
17.10.2013 15:00 15,4 C 68 % 1005,3 hPa 0,0 l/m 13,8 km/h (3 Bft) SW 9,5 C 12,1 C 29,9 km/h (5 Bft)
17.10.2013 16:00 14,3 C 74 % 1005,5 hPa 0,0 l/m 11,7 km/h (2 Bft) SW 9,7 C 11,6 C 26,0 km/h (4 Bft)
17.10.2013 17:00 14,2 C 71 % 1005,5 hPa 0,0 l/m 12,8 km/h (3 Bft) SW 8,9 C 11,1 C 28,6 km/h (5 Bft)
17.10.2013 18:00 12,9 C 79 % 1006,2 hPa 0,0 l/m 12,9 km/h (3 Bft) SW 9,4 C 9,6 C 29,8 km/h (5 Bft)
17.10.2013 19:00 12,3 C 84 % 1006,6 hPa 0,2 l/m 11,2 km/h (2 Bft) W 9,7 C 9,6 C 26,8 km/h (4 Bft)
17.10.2013 20:00 12,3 C 83 % 1007,1 hPa 0,0 l/m 11,8 km/h (2 Bft) S 9,6 C 9,3 C 27,6 km/h (5 Bft)
17.10.2013 21:00 11,6 C 87 % 1008,1 hPa 1,2 l/m 9,9 km/h (2 Bft) W 9,4 C 9,4 C 24,0 km/h (4 Bft)
17.10.2013 22:00 10,4 C 92 % 1009,6 hPa 4,6 l/m 7,2 km/h (2 Bft) W 9,1 C 9,7 C 19,6 km/h (3 Bft)
17.10.2013 23:00 10,2 C 92 % 1010,4 hPa 0,4 l/m 6,9 km/h (2 Bft) SW 8,9 C 9,8 C 18,0 km/h (3 Bft)
18.10.2013 00:00 10,1 C 92 % 1011,2 hPa 0,2 l/m 7,3 km/h (2 Bft) W 8,9 C 9,3 C 19,4 km/h (3 Bft)
18.10.2013 01:00 10,0 C 92 % 1011,8 hPa 0,0 l/m 5,1 km/h (1 Bft) SW 8,7 C 10,0 C 12,4 km/h (2 Bft)
18.10.2013 02:00 10,0 C 91 % 1012,3 hPa 0,0 l/m 6,0 km/h (2 Bft) W 8,6 C 9,9 C 16,1 km/h (3 Bft)
18.10.2013 03:00 10,1 C 91 % 1012,9 hPa 0,0 l/m 5,0 km/h (1 Bft) W 8,6 C 10,1 C 13,3 km/h (3 Bft)
18.10.2013 04:00 9,8 C 92 % 1013,3 hPa 0,6 l/m 4,8 km/h (1 Bft) W 8,5 C 9,8 C 13,4 km/h (3 Bft)
18.10.2013 05:00 9,4 C 93 % 1014,0 hPa 0,4 l/m 4,5 km/h (1 Bft) W 8,3 C 9,3 C 11,3 km/h (2 Bft)
18.10.2013 06:00 9,4 C 93 % 1014,6 hPa 0,0 l/m 3,3 km/h (1 Bft) W 8,3 C 9,4 C 8,9 km/h (2 Bft)
18.10.2013 07:00 9,4 C 93 % 1015,2 hPa 0,0 l/m 3,0 km/h (1 Bft) W 8,3 C 9,4 C 8,3 km/h (2 Bft)
18.10.2013 08:00 9,3 C 93 % 1015,9 hPa 0,0 l/m 3,2 km/h (1 Bft) W-SW 8,2 C 9,3 C 8,6 km/h (2 Bft)
18.10.2013 09:00 9,5 C 93 % 1016,8 hPa 0,0 l/m 3,6 km/h (1 Bft) W 8,4 C 9,5 C 9,9 km/h (2 Bft)
18.10.2013 10:00 9,4 C 93 % 1017,7 hPa 1,0 l/m 4,0 km/h (1 Bft) W-SW 8,2 C 9,2 C 9,5 km/h (2 Bft)
18.10.2013 11:00 9,3 C 91 % 1018,3 hPa 0,2 l/m 4,4 km/h (1 Bft) W-NW 7,9 C 8,8 C 9,6 km/h (2 Bft)
18.10.2013 12:00 8,8 C 90 % 1018,9 hPa 0,0 l/m 2,0 km/h (1 Bft) W-NW 7,2 C 8,8 C 6,0 km/h (2 Bft)
18.10.2013 13:00 9,8 C 88 % 1019,0 hPa 0,0 l/m 2,9 km/h (1 Bft) N-NW 7,9 C 9,8 C 6,5 km/h (2 Bft)
18.10.2013 14:00 10,5 C 85 % 1019,1 hPa 0,0 l/m 2,9 km/h (1 Bft) W-SW 8,0 C 10,5 C 7,6 km/h (2 Bft)
18.10.2013 15:00 11,1 C 76 % 1019,5 hPa 0,0 l/m 3,1 km/h (1 Bft) NW 7,0 C 11,1 C 6,9 km/h (2 Bft)
18.10.2013 16:00 11,3 C 77 % 1019,7 hPa 0,0 l/m 1,2 km/h (1 Bft) W-SW 7,4 C 11,3 C 3,9 km/h (1 Bft)
18.10.2013 17:00 10,2 C 80 % 1019,9 hPa 0,0 l/m 0,5 km/h (0 Bft) N-NO 6,9 C 10,2 C 1,2 km/h (1 Bft)
18.10.2013 18:00 7,2 C 87 % 1020,3 hPa 0,0 l/m 0,1 km/h (0 Bft) N 5,1 C 7,2 C 0,5 km/h (0 Bft)
18.10.2013 19:00 5,2 C 92 % 1020,8 hPa 0,0 l/m 0,0 km/h (0 Bft) N 4,1 C 5,2 C 0,1 km/h (0 Bft)
18.10.2013 20:00 3,6 C 93 % 1021,0 hPa 0,0 l/m 0,0 km/h (0 Bft) N 2,6 C 3,6 C 0,0 km/h (0 Bft)
18.10.2013 21:00 2,5 C 94 % 1021,3 hPa 0,0 l/m 0,0 km/h (0 Bft) N 1,7 C 2,5 C 0,0 km/h (0 Bft)
18.10.2013 22:00 1,9 C 95 % 1021,5 hPa 0,0 l/m 0,0 km/h (0 Bft) N 1,2 C 1,9 C 0,0 km/h (0 Bft)
18.10.2013 23:00 1,1 C 95 % 1021,2 hPa 0,0 l/m 0,0 km/h (0 Bft) N 0,4 C 1,1 C 0,0 km/h (0 Bft)
19.10.2013 00:00 0,4 C 95 % 1020,8 hPa 0,0 l/m 0,0 km/h (0 Bft) N -0,3 C 0,4 C 0,0 km/h (0 Bft)
19.10.2013 01:00 1,0 C 96 % 1020,5 hPa 0,0 l/m 0,3 km/h (0 Bft) SO 0,4 C 1,0 C 1,1 km/h (0 Bft)
19.10.2013 02:00 3,0 C 96 % 1020,5 hPa 0,0 l/m 2,3 km/h (1 Bft) O-SO 2,4 C 3,0 C 7,2 km/h (2 Bft)
19.10.2013 03:00 3,9 C 93 % 1019,8 hPa 0,0 l/m 3,4 km/h (1 Bft) O-SO 2,9 C 3,9 C 8,5 km/h (2 Bft)
19.10.2013 04:00 4,3 C 92 % 1019,4 hPa 0,0 l/m 3,5 km/h (1 Bft) O-SO 3,1 C 4,3 C 8,9 km/h (2 Bft)
19.10.2013 05:00 4,1 C 92 % 1018,7 hPa 0,0 l/m 3,8 km/h (1 Bft) O-SO 2,9 C 4,1 C 9,5 km/h (2 Bft)
19.10.2013 06:00 3,8 C 92 % 1018,1 hPa 0,0 l/m 3,4 km/h (1 Bft) O-SO 2,6 C 3,8 C 9,3 km/h (2 Bft)
19.10.2013 07:00 3,5 C 92 % 1017,7 hPa 0,0 l/m 1,9 km/h (1 Bft) O-SO 2,4 C 3,5 C 6,7 km/h (2 Bft)
19.10.2013 08:00 3,8 C 93 % 1017,4 hPa 0,0 l/m 2,4 km/h (1 Bft) O 2,8 C 3,8 C 7,3 km/h (2 Bft)
19.10.2013 09:00 5,0 C 92 % 1017,3 hPa 0,0 l/m 1,9 km/h (1 Bft) O-SO 3,9 C 5,0 C 6,0 km/h (2 Bft)
19.10.2013 10:00 6,2 C 91 % 1016,6 hPa 0,0 l/m 2,8 km/h (1 Bft) O-SO 4,9 C 6,2 C 7,2 km/h (2 Bft)
19.10.2013 11:00 7,7 C 90 % 1015,8 hPa 0,0 l/m 4,3 km/h (1 Bft) SO 6,1 C 7,7 C 10,3 km/h (2 Bft)
19.10.2013 12:00 9,6 C 88 % 1014,9 hPa 0,0 l/m 5,4 km/h (1 Bft) O-SO 7,6 C 9,6 C 12,1 km/h (2 Bft)
19.10.2013 13:00 11,7 C 82 % 1013,8 hPa 0,0 l/m 6,2 km/h (2 Bft) O-SO 8,8 C 11,6 C 14,1 km/h (3 Bft)
19.10.2013 14:00 12,9 C 79 % 1012,6 hPa 0,0 l/m 5,4 km/h (2 Bft) O-SO 9,3 C 12,8 C 13,6 km/h (3 Bft)
19.10.2013 15:00 13,2 C 78 % 1011,8 hPa 0,0 l/m 4,6 km/h (1 Bft) SO 9,5 C 13,2 C 11,3 km/h (2 Bft)
19.10.2013 16:00 13,2 C 81 % 1011,3 hPa 0,0 l/m 2,5 km/h (1 Bft) SO 9,9 C 13,2 C 6,7 km/h (2 Bft)
19.10.2013 17:00 13,0 C 82 % 1010,8 hPa 0,0 l/m 1,8 km/h (1 Bft) SO 10,1 C 13,0 C 6,5 km/h (2 Bft)
19.10.2013 18:00 12,1 C 85 % 1010,6 hPa 0,0 l/m 0,7 km/h (0 Bft) S-SO 9,7 C 12,1 C 2,5 km/h (1 Bft)
19.10.2013 19:00 11,1 C 88 % 1010,6 hPa 0,0 l/m 0,0 km/h (0 Bft) N 9,2 C 11,1 C 0,6 km/h (0 Bft)
19.10.2013 20:00 10,7 C 90 % 1010,4 hPa 0,0 l/m 0,0 km/h (0 Bft) N 9,2 C 10,7 C 0,0 km/h (0 Bft)
19.10.2013 21:00 10,9 C 90 % 1010,2 hPa 0,0 l/m 0,1 km/h (0 Bft) N 9,3 C 10,9 C 0,3 km/h (0 Bft)
19.10.2013 22:00 11,7 C 90 % 1010,0 hPa 0,0 l/m 0,2 km/h (0 Bft) S-SO 10,1 C 11,7 C 1,1 km/h (0 Bft)
19.10.2013 23:00 13,2 C 90 % 1009,7 hPa 0,0 l/m 1,5 km/h (1 Bft) S-SW 11,5 C 13,2 C 4,3 km/h (1 Bft)
20.10.2013 00:00 13,9 C 89 % 1009,7 hPa 0,0 l/m 3,3 km/h (1 Bft) S-SW 12,2 C 13,8 C 7,4 km/h (2 Bft)
20.10.2013 01:00 14,9 C 88 % 1009,8 hPa 0,0 l/m 5,3 km/h (1 Bft) SW 12,9 C 14,9 C 11,8 km/h (2 Bft)
20.10.2013 02:00 14,8 C 89 % 1010,0 hPa 0,0 l/m 4,4 km/h (1 Bft) S-SW 12,9 C 14,8 C 9,7 km/h (2 Bft)
20.10.2013 03:00 15,4 C 88 % 1010,7 hPa 0,0 l/m 3,0 km/h (1 Bft) S-SW 13,4 C 15,4 C 8,4 km/h (2 Bft)
20.10.2013 04:00 15,6 C 88 % 1011,0 hPa 0,0 l/m 1,7 km/h (1 Bft) SW 13,5 C 15,6 C 5,5 km/h (2 Bft)
20.10.2013 05:00 14,7 C 90 % 1011,2 hPa 0,0 l/m 0,3 km/h (0 Bft) S-SW 13,0 C 14,7 C 1,2 km/h (1 Bft)
20.10.2013 06:00 13,1 C 92 % 1011,3 hPa 0,0 l/m 0,0 km/h (0 Bft) N 11,8 C 13,1 C 0,4 km/h (0 Bft)
20.10.2013 07:00 12,3 C 94 % 1011,5 hPa 0,0 l/m 0,1 km/h (0 Bft) N 11,4 C 12,3 C 1,3 km/h (1 Bft)
20.10.2013 08:00 12,9 C 95 % 1011,9 hPa 0,0 l/m 1,3 km/h (1 Bft) S-SW 12,0 C 12,9 C 3,7 km/h (1 Bft)
20.10.2013 09:00 13,7 C 93 % 1012,3 hPa 0,0 l/m 3,2 km/h (1 Bft) S 12,6 C 13,7 C 7,1 km/h (2 Bft)
20.10.2013 10:00 15,4 C 90 % 1012,6 hPa 0,0 l/m 5,8 km/h (2 Bft) S 13,8 C 15,4 C 11,4 km/h (2 Bft)
20.10.2013 11:00 16,7 C 87 % 1012,8 hPa 0,0 l/m 5,3 km/h (1 Bft) SW 14,4 C 16,7 C 10,9 km/h (2 Bft)
20.10.2013 12:00 17,1 C 86 % 1013,0 hPa 0,0 l/m 5,2 km/h (1 Bft) S-SW 14,7 C 17,1 C 11,3 km/h (2 Bft)
20.10.2013 13:00 17,4 C 85 % 1012,6 hPa 0,0 l/m 5,1 km/h (1 Bft) S-SW 14,9 C 17,4 C 11,3 km/h (2 Bft)
20.10.2013 14:00 17,6 C 85 % 1012,0 hPa 0,0 l/m 4,2 km/h (1 Bft) SW 15,0 C 17,6 C 9,3 km/h (2 Bft)
20.10.2013 15:00 17,6 C 85 % 1012,3 hPa 0,0 l/m 1,5 km/h (1 Bft) S 15,0 C 17,6 C 4,4 km/h (1 Bft)
20.10.2013 16:00 17,5 C 86 % 1012,4 hPa 0,0 l/m 2,3 km/h (1 Bft) S-SO 15,1 C 17,5 C 4,9 km/h (1 Bft)
20.10.2013 17:00 17,0 C 87 % 1012,3 hPa 0,0 l/m 2,0 km/h (1 Bft) S-SW 14,8 C 17,0 C 5,2 km/h (1 Bft)
20.10.2013 18:00 15,9 C 89 % 1012,3 hPa 0,0 l/m 0,0 km/h (0 Bft) N 14,1 C 15,9 C 0,4 km/h (0 Bft)
20.10.2013 19:00 15,0 C 92 % 1012,3 hPa 0,0 l/m 0,1 km/h (0 Bft) N 13,6 C 15,0 C 0,7 km/h (0 Bft)
20.10.2013 20:00 15,0 C 92 % 1012,2 hPa 0,0 l/m 1,9 km/h (1 Bft) S 13,7 C 15,0 C 5,2 km/h (1 Bft)
20.10.2013 21:00 14,9 C 91 % 1012,3 hPa 0,0 l/m 4,0 km/h (1 Bft) S-SW 13,4 C 14,9 C 8,3 km/h (2 Bft)
20.10.2013 22:00 14,5 C 91 % 1012,2 hPa 0,0 l/m 2,7 km/h (1 Bft) S-SW 13,1 C 14,5 C 6,8 km/h (2 Bft)
20.10.2013 23:00 14,5 C 91 % 1012,0 hPa 0,0 l/m 2,9 km/h (1 Bft) S 13,1 C 14,5 C 6,9 km/h (2 Bft)
Min-Datum _ 14.10.13 17.10.13 17.10.13 - 14.10.13 - 19.10.13 14.10.13 14.10.13
_ Min-Zeit 03:00 15:10 15:10 - 00:00 - 00:45 03:00 00:00
Minimum _ 0,1 C 66 % 1005,0 hPa - 0,0 km/h (0 Bft) - -0,5 C 0,1 C 0,0 km/h (0 Bft)
Max-Datum _ 20.10.13 14.10.13 18.10.13 17.10.13 17.10.13 - 20.10.13 20.10.13 17.10.13
_ Max-Zeit 14:25 04:05 22:10 22:00 15:30 - 16:00 14:25 18:05
Maximum _ 17,7 C 97 % 1021,6 hPa 4,6 l/m 17,1 km/h
SW (3 Bft)
- 15,2 C 17,7 C 46,7 km/h
W-NW (6 Bft)
Durchschnitt _ 9,7 C 91 % 1012,8 hPa #18,0 l/m 2,6 km/h (1 Bft) SW 8,2 C 9,5 C 6,7 km/h (2 Bft)